N220QS KRIC-KBOS
Flight info
| Callsign | N220QS |
|---|---|
| Flight time | N/A |
| Altitude | 41000 |
| Route | LUCYL6 LUCYL HYTRA GRACO BROSS Q419 JFK ROBUC3 |
| Aircraft | CL60/M-SBDE1E2E3FGHIJ1J4J5J7M3RWXYZ/LB1V1D1 |
Departure
| Time | 2026-04-29 14:28 |
|---|---|
| Airport | Richmond International Airport (KRIC) |
Arrival
| Time | N/A |
|---|---|
| Airport | Boston Logan International Airport (KBOS) |
| Time | Latitude | Longitude | Altitude | Speed | Heading |
|---|---|---|---|---|---|
| 2026-04-29 13:33 | 37.50917 | -77.31372 | 162 ft | 0 kts | 326° |
| 2026-04-29 14:22 | 37.50918 | -77.31373 | 162 ft | 0 kts | 325° |
| 2026-04-29 14:22 | 37.50935 | -77.31387 | 162 ft | 4 kts | 324° |
| 2026-04-29 14:22 | 37.50970 | -77.31422 | 162 ft | 8 kts | 319° |
| 2026-04-29 14:23 | 37.51023 | -77.31480 | 162 ft | 11 kts | 318° |
| 2026-04-29 14:23 | 37.51040 | -77.31518 | 163 ft | 5 kts | 261° |
| 2026-04-29 14:23 | 37.51022 | -77.31575 | 163 ft | 8 kts | 277° |
| 2026-04-29 14:23 | 37.51076 | -77.31634 | 163 ft | 12 kts | 328° |
| 2026-04-29 14:24 | 37.51158 | -77.31699 | 164 ft | 15 kts | 327° |
| 2026-04-29 14:24 | 37.51257 | -77.31780 | 165 ft | 18 kts | 328° |
| 2026-04-29 14:24 | 37.51373 | -77.31871 | 166 ft | 21 kts | 328° |
| 2026-04-29 14:24 | 37.51472 | -77.31951 | 167 ft | 14 kts | 327° |
| 2026-04-29 14:25 | 37.51567 | -77.32027 | 168 ft | 17 kts | 328° |
| 2026-04-29 14:25 | 37.51658 | -77.32100 | 168 ft | 11 kts | 328° |
| 2026-04-29 14:25 | 37.51706 | -77.32138 | 169 ft | 6 kts | 328° |
| 2026-04-29 14:25 | 37.51731 | -77.32163 | 169 ft | 2 kts | 303° |
| 2026-04-29 14:26 | 37.51730 | -77.32204 | 169 ft | 7 kts | 238° |
| 2026-04-29 14:26 | 37.51713 | -77.32237 | 169 ft | 2 kts | 239° |
| 2026-04-29 14:26 | 37.51694 | -77.32276 | 168 ft | 7 kts | 238° |
| 2026-04-29 14:26 | 37.51666 | -77.32328 | 168 ft | 5 kts | 233° |
| 2026-04-29 14:27 | 37.51641 | -77.32342 | 168 ft | 4 kts | 152° |
| 2026-04-29 14:27 | 37.51560 | -77.32275 | 168 ft | 43 kts | 148° |
| 2026-04-29 14:27 | 37.50989 | -77.31818 | 167 ft | 145 kts | 147° |
| 2026-04-29 14:28 | 37.49089 | -77.30046 | 1827 ft | 188 kts | 123° |
| 2026-04-29 14:28 | 37.48794 | -77.28455 | 2925 ft | 198 kts | 99° |
| 2026-04-29 14:28 | 37.48690 | -77.26762 | 4035 ft | 201 kts | 98° |
| 2026-04-29 14:28 | 37.48575 | -77.25010 | 5045 ft | 214 kts | 97° |
| 2026-04-29 14:29 | 37.48429 | -77.23031 | 5940 ft | 237 kts | 98° |
| 2026-04-29 14:29 | 37.48264 | -77.20962 | 6909 ft | 246 kts | 98° |
| 2026-04-29 14:29 | 37.48080 | -77.18804 | 7959 ft | 255 kts | 98° |
| 2026-04-29 14:29 | 37.47927 | -77.16563 | 9019 ft | 270 kts | 90° |
| 2026-04-29 14:30 | 37.48325 | -77.14221 | 10198 ft | 281 kts | 64° |
| 2026-04-29 14:30 | 37.49372 | -77.12170 | 11360 ft | 288 kts | 53° |
| 2026-04-29 14:30 | 37.50550 | -77.10114 | 12611 ft | 293 kts | 52° |
| 2026-04-29 14:30 | 37.51715 | -77.08065 | 13871 ft | 295 kts | 52° |
| 2026-04-29 14:31 | 37.52893 | -77.05988 | 15037 ft | 295 kts | 52° |
| 2026-04-29 14:31 | 37.54079 | -77.03893 | 16176 ft | 296 kts | 52° |
| 2026-04-29 14:31 | 37.55272 | -77.01783 | 17263 ft | 298 kts | 52° |
| 2026-04-29 14:31 | 37.56528 | -76.99569 | 17581 ft | 330 kts | 52° |
| 2026-04-29 14:32 | 37.57932 | -76.97091 | 17757 ft | 363 kts | 53° |
| 2026-04-29 14:32 | 37.59428 | -76.94437 | 18304 ft | 380 kts | 53° |
| 2026-04-29 14:32 | 37.60979 | -76.91682 | 19156 ft | 386 kts | 53° |
| 2026-04-29 14:32 | 37.62521 | -76.88936 | 20081 ft | 389 kts | 52° |
| 2026-04-29 14:33 | 37.64085 | -76.86149 | 20946 ft | 392 kts | 52° |
| 2026-04-29 14:33 | 37.65652 | -76.83356 | 21730 ft | 395 kts | 52° |
| 2026-04-29 14:33 | 37.67252 | -76.80501 | 22528 ft | 398 kts | 52° |
| 2026-04-29 14:33 | 37.68847 | -76.77651 | 23236 ft | 402 kts | 52° |
| 2026-04-29 14:34 | 37.70481 | -76.74770 | 23975 ft | 405 kts | 49° |
| 2026-04-29 14:34 | 37.72478 | -76.72276 | 24617 ft | 403 kts | 31° |
| 2026-04-29 14:34 | 37.74948 | -76.70613 | 25233 ft | 397 kts | 12° |
| 2026-04-29 14:34 | 37.77614 | -76.69918 | 25888 ft | 389 kts | 357° |
| 2026-04-29 14:35 | 37.80328 | -76.69721 | 26500 ft | 391 kts | 355° |
| 2026-04-29 14:35 | 37.83064 | -76.69540 | 27136 ft | 395 kts | 355° |
| 2026-04-29 14:35 | 37.85794 | -76.69355 | 27797 ft | 397 kts | 355° |
| 2026-04-29 14:35 | 37.88558 | -76.69167 | 28424 ft | 399 kts | 354° |
| 2026-04-29 14:36 | 37.91386 | -76.68976 | 28971 ft | 402 kts | 354° |
| 2026-04-29 14:36 | 37.94205 | -76.68782 | 29600 ft | 403 kts | 354° |
| 2026-04-29 14:36 | 37.97045 | -76.68588 | 30114 ft | 406 kts | 353° |
| 2026-04-29 14:36 | 37.99881 | -76.68394 | 30599 ft | 409 kts | 353° |
| 2026-04-29 14:37 | 38.02736 | -76.68199 | 31066 ft | 411 kts | 353° |
| 2026-04-29 14:37 | 38.05644 | -76.67841 | 31545 ft | 421 kts | 0° |
| 2026-04-29 14:37 | 38.08545 | -76.66765 | 32004 ft | 437 kts | 12° |
| 2026-04-29 14:37 | 38.11298 | -76.65030 | 32454 ft | 450 kts | 22° |
| 2026-04-29 14:38 | 38.13887 | -76.62642 | 32904 ft | 462 kts | 33° |
| 2026-04-29 14:38 | 38.16192 | -76.59738 | 33336 ft | 470 kts | 39° |
| 2026-04-29 14:38 | 38.18396 | -76.56674 | 33768 ft | 470 kts | 40° |
| 2026-04-29 14:38 | 38.20594 | -76.53629 | 34240 ft | 470 kts | 39° |
| 2026-04-29 14:39 | 38.22848 | -76.50520 | 34706 ft | 470 kts | 39° |
| 2026-04-29 14:39 | 38.25098 | -76.47449 | 35166 ft | 468 kts | 37° |
| 2026-04-29 14:39 | 38.27465 | -76.44705 | 35594 ft | 459 kts | 28° |
| 2026-04-29 14:39 | 38.30093 | -76.42391 | 36024 ft | 448 kts | 19° |
| 2026-04-29 14:40 | 38.32830 | -76.40605 | 36449 ft | 436 kts | 11° |
| 2026-04-29 14:40 | 38.35675 | -76.39296 | 36851 ft | 425 kts | 3° |
| 2026-04-29 14:40 | 38.38491 | -76.38346 | 37241 ft | 421 kts | 1° |
| 2026-04-29 14:40 | 38.41367 | -76.37409 | 37641 ft | 421 kts | 1° |
| 2026-04-29 14:41 | 38.44190 | -76.36485 | 38012 ft | 420 kts | 0° |
| 2026-04-29 14:41 | 38.47071 | -76.35541 | 38377 ft | 420 kts | 1° |
| 2026-04-29 14:41 | 38.49873 | -76.34622 | 38705 ft | 419 kts | 1° |
| 2026-04-29 14:41 | 38.52759 | -76.33675 | 38984 ft | 419 kts | 1° |
| 2026-04-29 14:42 | 38.55565 | -76.32753 | 39241 ft | 419 kts | 1° |
| 2026-04-29 14:42 | 38.58392 | -76.31824 | 39498 ft | 419 kts | 1° |
| 2026-04-29 14:42 | 38.61266 | -76.30878 | 39732 ft | 419 kts | 1° |
| 2026-04-29 14:42 | 38.64094 | -76.29945 | 39920 ft | 419 kts | 1° |
| 2026-04-29 14:43 | 38.66921 | -76.29013 | 40095 ft | 419 kts | 1° |
| 2026-04-29 14:43 | 38.69778 | -76.28071 | 40254 ft | 419 kts | 1° |
| 2026-04-29 14:43 | 38.72619 | -76.27133 | 40420 ft | 420 kts | 2° |
| 2026-04-29 14:43 | 38.75443 | -76.26199 | 40569 ft | 420 kts | 2° |
| 2026-04-29 14:44 | 38.78285 | -76.25259 | 40695 ft | 420 kts | 2° |
| 2026-04-29 14:44 | 38.81140 | -76.24313 | 40837 ft | 420 kts | 2° |
| 2026-04-29 14:44 | 38.83978 | -76.23371 | 40962 ft | 420 kts | 2° |
| 2026-04-29 14:45 | 38.89681 | -76.21320 | 41023 ft | 433 kts | 9° |
| 2026-04-29 14:45 | 38.92495 | -76.19792 | 41034 ft | 446 kts | 16° |
| 2026-04-29 14:45 | 38.95228 | -76.17790 | 41028 ft | 459 kts | 24° |
| 2026-04-29 14:45 | 38.97829 | -76.15245 | 41041 ft | 473 kts | 33° |
| 2026-04-29 14:46 | 39.00233 | -76.12279 | 41011 ft | 481 kts | 37° |
| 2026-04-29 14:46 | 39.05032 | -76.06146 | 41014 ft | 485 kts | 37° |
| 2026-04-29 14:47 | 39.09853 | -75.99981 | 41069 ft | 491 kts | 37° |
| 2026-04-29 14:47 | 39.12176 | -75.97006 | 40987 ft | 494 kts | 37° |
| 2026-04-29 14:48 | 39.13644 | -75.95123 | 41040 ft | 494 kts | 37° |
| 2026-04-29 14:48 | 39.19709 | -75.87413 | 41046 ft | 495 kts | 33° |
| 2026-04-29 14:49 | 39.25021 | -75.81594 | 41039 ft | 497 kts | 32° |
| 2026-04-29 14:49 | 39.30329 | -75.75806 | 41033 ft | 501 kts | 32° |
| 2026-04-29 14:50 | 39.35697 | -75.69935 | 41038 ft | 504 kts | 32° |
| 2026-04-29 14:50 | 39.41085 | -75.64027 | 41036 ft | 507 kts | 32° |
| 2026-04-29 14:51 | 39.46505 | -75.58070 | 41038 ft | 509 kts | 32° |
| 2026-04-29 14:51 | 39.51920 | -75.52103 | 41029 ft | 511 kts | 32° |
| 2026-04-29 14:52 | 39.57363 | -75.46091 | 41034 ft | 512 kts | 33° |
| 2026-04-29 14:52 | 39.62815 | -75.40055 | 41034 ft | 512 kts | 32° |
| 2026-04-29 14:53 | 39.68264 | -75.34009 | 41046 ft | 512 kts | 33° |
| 2026-04-29 14:53 | 39.73655 | -75.28014 | 41044 ft | 512 kts | 33° |
| 2026-04-29 14:54 | 39.79055 | -75.21888 | 41038 ft | 517 kts | 38° |
| 2026-04-29 14:54 | 39.83936 | -75.14806 | 41039 ft | 522 kts | 42° |
| 2026-04-29 14:55 | 39.88710 | -75.07703 | 41046 ft | 524 kts | 42° |
| 2026-04-29 14:55 | 39.93555 | -75.00481 | 41048 ft | 525 kts | 43° |
| 2026-04-29 14:56 | 39.98150 | -74.93060 | 41041 ft | 531 kts | 50° |
| 2026-04-29 14:56 | 40.02272 | -74.84975 | 41041 ft | 531 kts | 51° |
| 2026-04-29 14:57 | 40.06367 | -74.76928 | 41065 ft | 532 kts | 51° |
| 2026-04-29 14:57 | 40.10487 | -74.68811 | 41048 ft | 531 kts | 51° |
| 2026-04-29 14:58 | 40.14446 | -74.60993 | 41058 ft | 529 kts | 51° |
| 2026-04-29 14:58 | 40.18506 | -74.53072 | 41057 ft | 525 kts | 47° |
| 2026-04-29 14:59 | 40.23425 | -74.46133 | 41035 ft | 510 kts | 32° |
| 2026-04-29 14:59 | 40.28912 | -74.40248 | 41032 ft | 508 kts | 31° |
| 2026-04-29 15:00 | 40.34412 | -74.34363 | 41034 ft | 508 kts | 32° |
| 2026-04-29 15:00 | 40.39813 | -74.28571 | 41035 ft | 507 kts | 32° |
| 2026-04-29 15:01 | 40.45251 | -74.22729 | 40925 ft | 510 kts | 32° |
| 2026-04-29 15:01 | 40.47991 | -74.19711 | 40368 ft | 521 kts | 34° |
| 2026-04-29 15:01 | 40.50573 | -74.16363 | 39684 ft | 525 kts | 40° |
| 2026-04-29 15:01 | 40.52927 | -74.12611 | 38993 ft | 528 kts | 46° |
| 2026-04-29 15:02 | 40.54958 | -74.08582 | 38289 ft | 530 kts | 52° |
| 2026-04-29 15:02 | 40.56674 | -74.04260 | 37522 ft | 533 kts | 59° |
| 2026-04-29 15:02 | 40.58015 | -73.99775 | 36839 ft | 533 kts | 66° |
| 2026-04-29 15:02 | 40.59126 | -73.95100 | 36110 ft | 530 kts | 69° |
| 2026-04-29 15:03 | 40.60200 | -73.90472 | 35428 ft | 529 kts | 68° |
| 2026-04-29 15:03 | 40.61277 | -73.85875 | 34735 ft | 525 kts | 68° |
| 2026-04-29 15:03 | 40.62585 | -73.81366 | 34007 ft | 517 kts | 60° |
| 2026-04-29 15:03 | 40.64210 | -73.77200 | 33297 ft | 505 kts | 53° |
| 2026-04-29 15:04 | 40.66114 | -73.73373 | 32642 ft | 494 kts | 47° |
| 2026-04-29 15:04 | 40.68238 | -73.69920 | 31976 ft | 483 kts | 41° |
| 2026-04-29 15:04 | 40.70466 | -73.66654 | 31359 ft | 476 kts | 41° |
| 2026-04-29 15:04 | 40.72694 | -73.63391 | 30702 ft | 471 kts | 42° |
| 2026-04-29 15:05 | 40.74842 | -73.60242 | 30106 ft | 467 kts | 43° |
| 2026-04-29 15:05 | 40.77021 | -73.57046 | 29477 ft | 464 kts | 43° |
| 2026-04-29 15:05 | 40.79164 | -73.53898 | 28874 ft | 458 kts | 43° |
| 2026-04-29 15:05 | 40.81281 | -73.50783 | 28269 ft | 451 kts | 43° |
| 2026-04-29 15:06 | 40.83365 | -73.47715 | 27666 ft | 445 kts | 43° |
| 2026-04-29 15:06 | 40.85445 | -73.44650 | 27072 ft | 438 kts | 43° |
| 2026-04-29 15:06 | 40.87447 | -73.41696 | 26544 ft | 430 kts | 43° |
| 2026-04-29 15:06 | 40.89418 | -73.38782 | 26347 ft | 414 kts | 43° |
| 2026-04-29 15:07 | 40.91333 | -73.35951 | 26427 ft | 411 kts | 43° |
| 2026-04-29 15:07 | 40.93271 | -73.33096 | 26163 ft | 427 kts | 44° |
| 2026-04-29 15:07 | 40.95244 | -73.30180 | 25972 ft | 423 kts | 44° |
| 2026-04-29 15:07 | 40.97240 | -73.27221 | 25721 ft | 420 kts | 44° |
| 2026-04-29 15:08 | 40.99185 | -73.24336 | 25513 ft | 416 kts | 44° |
| 2026-04-29 15:08 | 41.01139 | -73.21436 | 25276 ft | 413 kts | 44° |
| 2026-04-29 15:08 | 41.03056 | -73.18587 | 25085 ft | 410 kts | 44° |
| 2026-04-29 15:08 | 41.04953 | -73.15766 | 24869 ft | 408 kts | 44° |
| 2026-04-29 15:09 | 41.06867 | -73.12917 | 24661 ft | 405 kts | 44° |
| 2026-04-29 15:09 | 41.08727 | -73.10146 | 24439 ft | 403 kts | 44° |
| 2026-04-29 15:09 | 41.10610 | -73.07338 | 24232 ft | 400 kts | 44° |
| 2026-04-29 15:09 | 41.12412 | -73.04649 | 24025 ft | 399 kts | 44° |
| 2026-04-29 15:10 | 41.14230 | -73.01931 | 23822 ft | 397 kts | 44° |
| 2026-04-29 15:10 | 41.16042 | -72.99223 | 23611 ft | 394 kts | 44° |
| 2026-04-29 15:10 | 41.17861 | -72.96500 | 23403 ft | 392 kts | 44° |
| 2026-04-29 15:10 | 41.19678 | -72.93778 | 23206 ft | 389 kts | 44° |
| 2026-04-29 15:11 | 41.21365 | -72.90926 | 23003 ft | 392 kts | 56° |
| 2026-04-29 15:11 | 41.22648 | -72.87692 | 22879 ft | 391 kts | 60° |
| 2026-04-29 15:11 | 41.23879 | -72.84460 | 22851 ft | 393 kts | 60° |